Time;durP1;ratioP1;P1;durP2;ratioP2;P2;SDS_P1;SDS_P2;PMS_P1;PMS_P2;Temp;Humidity;BMP_temperature;BMP_pressure;BME280_temperature;BME280_humidity;BME280_pressure;Samples;Min_cycle;Max_cycle;Signal;HPM_P1;HPM_P2
2022/03/21 00:02:11;;;;;;;72.45;38.97;;;4.90;79.70;;;;;;4987082;28;20025;-54
2022/03/21 00:04:37;;;;;;;57.08;34.85;;;5.00;80.90;;;;;;4985638;28;20038;-54
2022/03/21 00:07:03;;;;;;;59.70;36.47;;;5.00;80.50;;;;;;4983011;28;20066;-54
2022/03/21 00:09:28;;;;;;;58.45;36.13;;;5.00;81.30;;;;;;4983775;28;20038;-54
2022/03/21 00:11:54;;;;;;;45.25;27.00;;;4.90;81.90;;;;;;4979866;28;20031;-54
2022/03/21 00:14:20;;;;;;;46.17;27.98;;;4.80;81.20;;;;;;4985527;28;20030;-54
2022/03/21 00:16:46;;;;;;;37.90;23.08;;;4.90;81.20;;;;;;4980471;28;20085;-53
2022/03/21 00:19:12;;;;;;;35.78;24.17;;;4.90;81.30;;;;;;4988214;28;20085;-53
2022/03/21 00:21:38;;;;;;;35.80;24.42;;;4.90;81.60;;;;;;4985187;28;20026;-53
2022/03/21 00:24:04;;;;;;;40.65;24.05;;;4.80;82.70;;;;;;4991795;28;20068;-53
2022/03/21 00:26:30;;;;;;;38.08;24.13;;;4.70;82.50;;;;;;4942715;29;20051;-55
2022/03/21 00:28:56;;;;;;;36.60;24.33;;;4.60;82.80;;;;;;4988522;28;20129;-54
2022/03/21 00:31:22;;;;;;;33.83;22.38;;;4.60;82.90;;;;;;4975540;28;20502;-55
2022/03/21 00:33:48;;;;;;;39.90;24.05;;;4.50;82.70;;;;;;4960100;28;20490;-54
2022/03/21 00:36:15;;;;;;;26.42;17.80;;;4.50;83.00;;;;;;4988131;28;20038;-53
2022/03/21 00:38:43;;;;;;;28.50;16.17;;;4.50;82.70;;;;;;4990540;28;20567;-54
2022/03/21 00:41:09;;;;;;;19.67;15.50;;;4.50;82.30;;;;;;4982716;28;20062;-53
2022/03/21 00:43:35;;;;;;;22.48;15.57;;;4.50;81.80;;;;;;4987942;28;20034;-54
2022/03/21 00:46:01;;;;;;;21.35;14.48;;;4.50;81.50;;;;;;4973058;28;20054;-54
2022/03/21 00:48:29;;;;;;;22.25;14.82;;;4.50;81.50;;;;;;4989590;28;20030;-54
2022/03/21 00:50:57;;;;;;;75.72;38.80;;;4.40;81.80;;;;;;4985542;28;20055;-54
2022/03/21 00:53:23;;;;;;;102.70;51.60;;;4.30;82.10;;;;;;4983903;28;20038;-54
2022/03/21 00:55:49;;;;;;;110.75;51.50;;;4.40;82.00;;;;;;4986326;28;20384;-54
2022/03/21 00:58:16;;;;;;;77.53;41.30;;;4.10;82.90;;;;;;4982104;28;20117;-53
2022/03/21 01:00:42;;;;;;;34.65;22.63;;;3.90;83.80;;;;;;4992774;28;20138;-53
2022/03/21 01:03:08;;;;;;;36.00;24.00;;;3.40;86.20;;;;;;4955946;28;20050;-54
2022/03/21 01:05:35;;;;;;;41.20;25.45;;;3.60;86.00;;;;;;4980444;28;20118;-54
2022/03/21 01:08:04;;;;;;;45.42;27.23;;;3.40;86.00;;;;;;4977698;28;20089;-55
2022/03/21 01:10:31;;;;;;;57.70;29.90;;;3.70;85.10;;;;;;4946795;28;20051;-53
2022/03/21 01:12:57;;;;;;;117.35;52.50;;;3.60;86.10;;;;;;4990087;28;20026;-53
2022/03/21 01:15:25;;;;;;;96.68;49.83;;;3.80;86.30;;;;;;4984659;28;20416;-53
2022/03/21 01:17:52;;;;;;;107.80;53.75;;;3.90;86.10;;;;;;4987515;28;20023;-64
2022/03/21 01:20:20;;;;;;;160.60;79.38;;;3.90;85.70;;;;;;4969412;28;20089;-54
2022/03/21 01:22:46;;;;;;;159.10;83.53;;;4.00;85.10;;;;;;4963596;28;20046;-58
2022/03/21 01:25:13;;;;;;;129.35;67.95;;;4.10;85.00;;;;;;4967989;28;20062;-53
2022/03/21 01:27:40;;;;;;;111.47;54.08;;;4.20;85.00;;;;;;4960988;28;20046;-55
2022/03/21 01:30:27;;;;;;;62.72;35.15;;;4.20;84.70;;;;;;4986299;28;20109;-55
2022/03/21 01:32:53;;;;;;;65.70;39.90;;;4.30;84.80;;;;;;4927847;29;20048;-58
2022/03/21 01:35:21;;;;;;;51.67;31.17;;;4.30;84.80;;;;;;4915965;29;20055;-55
2022/03/21 01:37:47;;;;;;;53.22;31.85;;;4.40;83.70;;;;;;4905126;29;20048;-61
2022/03/21 01:40:14;;;;;;;48.80;28.42;;;4.20;84.20;;;;;;4914595;29;20056;-57
2022/03/21 01:42:43;;;;;;;46.45;27.50;;;4.10;84.00;;;;;;4928373;29;20048;-55
2022/03/21 01:45:10;;;;;;;45.00;27.17;;;4.10;84.50;;;;;;4932230;29;20044;-57
2022/03/21 01:47:36;;;;;;;50.10;29.35;;;4.20;84.60;;;;;;4932120;29;20400;-54
2022/03/21 01:50:04;;;;;;;38.65;24.13;;;4.20;84.70;;;;;;4936682;29;20035;-53
2022/03/21 01:52:30;;;;;;;37.58;24.85;;;4.20;84.00;;;;;;4893253;29;20080;-54
2022/03/21 01:57:54;;;;;;;38.22;23.42;;;4.20;83.20;;;;;;4830605;29;20102;-53
2022/03/21 02:00:21;;;;;;;35.42;22.00;;;4.20;83.20;;;;;;4842268;29;20079;-53
2022/03/21 02:02:46;;;;;;;31.38;21.85;;;4.20;83.10;;;;;;4844126;29;20518;-53
2022/03/21 02:05:12;;;;;;;34.58;22.60;;;4.20;83.40;;;;;;4898064;29;20072;-53
2022/03/21 02:07:38;;;;;;;36.33;23.60;;;4.20;83.40;;;;;;4897969;29;20408;-53
2022/03/21 02:10:06;;;;;;;34.17;22.85;;;4.20;83.50;;;;;;4880600;29;20045;-53
2022/03/21 02:12:33;;;;;;;37.38;24.77;;;4.20;83.20;;;;;;4894509;29;20489;-53
2022/03/21 02:14:59;;;;;;;33.25;24.15;;;4.20;83.10;;;;;;4897586;29;20123;-54
2022/03/21 02:17:27;;;;;;;32.45;22.95;;;4.10;83.10;;;;;;4898363;29;20036;-53
2022/03/21 02:19:54;;;;;;;33.25;22.60;;;4.10;83.40;;;;;;4897817;29;20428;-54
2022/03/21 02:22:29;;;;;;;33.28;21.83;;;3.90;83.80;;;;;;4897628;29;20500;-54
2022/03/21 02:25:26;;;;;;;33.22;21.77;;;4.00;84.20;;;;;;4893686;29;20100;-54
2022/03/21 02:27:52;;;;;;;30.50;21.10;;;3.80;84.30;;;;;;4898228;29;20028;-53
2022/03/21 02:30:18;;;;;;;31.52;21.65;;;3.60;84.70;;;;;;4897444;29;20041;-55
2022/03/21 02:32:46;;;;;;;29.90;20.00;;;3.50;85.40;;;;;;4897661;29;20116;-53
2022/03/21 02:35:13;;;;;;;34.60;21.48;;;3.50;85.60;;;;;;4980228;28;20252;-54
2022/03/21 02:37:41;;;;;;;29.70;21.23;;;3.40;86.00;;;;;;4984398;28;20026;-53
2022/03/21 02:40:08;;;;;;;30.90;22.13;;;3.40;85.90;;;;;;4983579;28;20027;-53
2022/03/21 02:42:34;;;;;;;35.00;21.98;;;3.40;86.00;;;;;;4986530;28;20042;-53
2022/03/21 02:45:00;;;;;;;38.53;23.13;;;3.40;86.30;;;;;;4968557;28;20093;-56
2022/03/21 02:47:26;;;;;;;38.05;25.50;;;3.30;86.90;;;;;;4977399;28;20557;-55
2022/03/21 02:49:53;;;;;;;35.83;24.27;;;3.10;87.80;;;;;;4985572;28;20059;-54
2022/03/21 02:52:19;;;;;;;33.35;22.38;;;3.00;88.20;;;;;;4981781;28;20030;-53
2022/03/21 02:54:45;;;;;;;32.38;23.17;;;3.00;88.60;;;;;;4991713;28;20025;-55
2022/03/21 02:57:10;;;;;;;34.63;21.98;;;2.90;89.10;;;;;;4986626;28;20121;-54
2022/03/21 02:59:36;;;;;;;35.88;21.95;;;2.70;89.50;;;;;;4984341;28;20022;-55
2022/03/21 03:02:02;;;;;;;36.08;22.92;;;2.70;89.80;;;;;;4956030;28;20050;-55
2022/03/21 03:04:28;;;;;;;34.05;21.95;;;2.60;99.90;;;;;;4935445;28;20411;-54
2022/03/21 03:06:54;;;;;;;35.08;23.25;;;2.60;99.90;;;;;;4985866;28;20049;-54
2022/03/21 03:09:20;;;;;;;37.40;22.15;;;2.70;99.90;;;;;;4993437;28;20030;-54
2022/03/21 03:11:46;;;;;;;32.80;22.92;;;2.70;99.90;;;;;;4944396;28;20042;-55
2022/03/21 03:14:12;;;;;;;34.20;22.85;;;2.80;99.90;;;;;;4985636;28;20130;-54
2022/03/21 03:16:39;;;;;;;33.78;22.70;;;2.90;99.90;;;;;;4929081;28;20049;-54
2022/03/21 03:19:05;;;;;;;32.72;21.70;;;3.00;99.90;;;;;;4984622;28;20035;-54
2022/03/21 03:21:37;;;;;;;32.15;21.73;;;3.00;93.00;;;;;;4992375;28;20084;-54
2022/03/21 03:24:04;;;;;;;34.65;21.48;;;2.90;93.10;;;;;;4983076;28;20030;-55
2022/03/21 03:26:30;;;;;;;34.03;22.70;;;2.80;92.90;;;;;;4936261;28;20127;-54
2022/03/21 03:28:55;;;;;;;33.03;20.85;;;2.60;93.40;;;;;;4987748;28;20066;-53
2022/03/21 03:31:21;;;;;;;36.13;22.33;;;2.70;93.30;;;;;;4986492;28;20468;-55
2022/03/21 03:33:47;;;;;;;36.65;22.00;;;2.70;93.80;;;;;;4957753;28;20038;-55
2022/03/21 03:36:15;;;;;;;33.42;21.30;;;2.70;93.80;;;;;;4946856;28;20150;-54
2022/03/21 03:38:45;;;;;;;30.15;20.90;;;2.70;93.60;;;;;;4988481;28;20026;-57
2022/03/21 03:41:11;;;;;;;33.17;21.10;;;2.80;93.30;;;;;;4985715;28;20078;-54
2022/03/21 03:43:38;;;;;;;33.25;21.10;;;2.60;93.40;;;;;;4985974;28;20080;-54
2022/03/21 03:46:04;;;;;;;32.60;21.20;;;2.70;93.60;;;;;;4978962;28;20061;-55
2022/03/21 03:48:30;;;;;;;34.67;22.55;;;2.70;93.60;;;;;;4985828;28;20033;-55
2022/03/21 03:50:57;;;;;;;30.67;20.23;;;2.60;93.70;;;;;;4991534;28;20529;-53
2022/03/21 03:53:23;;;;;;;35.05;22.05;;;2.50;94.00;;;;;;4985887;28;20407;-54
2022/03/21 03:55:50;;;;;;;31.10;21.70;;;2.60;94.00;;;;;;4990324;28;20034;-54
2022/03/21 03:58:15;;;;;;;31.92;21.83;;;2.40;95.10;;;;;;4953980;28;20117;-54
2022/03/21 04:00:41;;;;;;;33.35;22.75;;;2.40;95.50;;;;;;4984577;28;20114;-53
2022/03/21 04:05:52;;;;;;;34.88;21.13;;;2.20;94.90;;;;;;4956644;28;20134;-55
2022/03/21 04:08:18;;;;;;;32.92;22.83;;;2.10;95.40;;;;;;4982577;28;20110;-54
2022/03/21 04:10:43;;;;;;;39.03;25.42;;;2.20;95.40;;;;;;4984389;28;20050;-54
2022/03/21 04:13:09;;;;;;;44.88;24.77;;;2.30;95.20;;;;;;4985124;28;20085;-54
2022/03/21 04:15:35;;;;;;;37.30;23.67;;;2.00;97.10;;;;;;4932447;28;20129;-55
2022/03/21 04:18:07;;;;;;;36.40;24.02;;;1.50;92.00;;;;;;4934148;29;20444;-56
2022/03/21 04:20:36;;;;;;;39.03;25.13;;;1.40;92.60;;;;;;4966665;28;20077;-57
2022/03/21 04:23:02;;;;;;;41.20;24.30;;;;;;;;;;4965195;28;20050;-55
2022/03/21 04:25:28;;;;;;;42.33;25.55;;;;;;;;;;4966578;28;20038;-54
2022/03/21 04:27:55;;;;;;;38.80;24.33;;;0.80;94.30;;;;;;4958737;28;20035;-54
2022/03/21 04:30:21;;;;;;;55.90;27.63;;;0.80;97.00;;;;;;4972599;28;20443;-54
2022/03/21 04:32:47;;;;;;;43.40;26.27;;;0.80;98.20;;;;;;4968851;28;20031;-56
2022/03/21 04:35:13;;;;;;;38.20;24.80;;;0.80;98.20;;;;;;4962893;28;20035;-55
2022/03/21 04:37:41;;;;;;;43.72;26.63;;;0.70;95.40;;;;;;4923484;29;20126;-53
2022/03/21 04:40:08;;;;;;;41.25;27.65;;;1.00;95.10;;;;;;4972075;28;20062;-53
2022/03/21 04:42:38;;;;;;;49.35;29.88;;;1.40;94.20;;;;;;4949177;29;20047;-53
2022/03/21 04:45:05;;;;;;;46.03;28.48;;;1.80;93.40;;;;;;4923314;29;20472;-52
2022/03/21 04:47:32;;;;;;;43.60;28.23;;;1.90;92.80;;;;;;4926899;29;20067;-52
2022/03/21 04:49:58;;;;;;;42.03;27.15;;;2.10;92.70;;;;;;4949398;29;21047;-53
2022/03/21 04:52:23;;;;;;;39.33;26.80;;;2.20;92.60;;;;;;4945956;29;20035;-54
2022/03/21 04:54:49;;;;;;;40.33;26.30;;;2.30;92.40;;;;;;4937837;28;20115;-54
2022/03/21 04:57:19;;;;;;;38.65;26.73;;;2.30;92.10;;;;;;4944762;29;20407;-56
2022/03/21 04:59:44;;;;;;;39.80;26.52;;;2.30;92.10;;;;;;4943344;29;20446;-54
2022/03/21 05:02:11;;;;;;;42.67;25.58;;;2.40;92.00;;;;;;4942333;29;20036;-55
2022/03/21 05:04:37;;;;;;;48.88;26.92;;;2.50;91.90;;;;;;4940110;29;20117;-56
2022/03/21 05:07:06;;;;;;;36.50;24.02;;;2.50;91.90;;;;;;4917658;29;20114;-56
2022/03/21 05:09:32;;;;;;;44.53;27.48;;;2.50;91.80;;;;;;4932643;29;20190;-53
2022/03/21 05:11:58;;;;;;;51.97;34.17;;;2.50;91.80;;;;;;4931867;29;20396;-54
2022/03/21 05:14:24;;;;;;;40.55;25.42;;;2.20;92.20;;;;;;4963616;28;20031;-53
2022/03/21 05:16:50;;;;;;;41.33;25.70;;;2.00;92.40;;;;;;4981889;28;20061;-54
2022/03/21 05:19:16;;;;;;;37.92;24.45;;;1.10;94.20;;;;;;4984233;28;20463;-55
2022/03/21 05:21:42;;;;;;;41.00;27.52;;;0.60;96.10;;;;;;4937951;28;20089;-54
2022/03/21 05:32:22;;;;;;;48.65;25.67;;;0.20;99.10;;;;;;4991968;28;20165;-54
2022/03/21 05:37:34;;;;;;;39.80;24.95;;;1.40;96.90;;;;;;4925259;29;20071;-54
2022/03/21 05:42:44;;;;;;;36.45;24.50;;;0.40;97.70;;;;;;4904751;29;20139;-53
2022/03/21 05:45:11;;;;;;;37.75;23.60;;;1.10;97.80;;;;;;4922121;29;20040;-54
2022/03/21 05:48:50;;;;;;;30.00;17.70;;;1.20;99.90;;;;;;4918176;29;20032;-54
2022/03/21 05:50:22;;;;;;;34.80;20.27;;;0.80;99.90;;;;;;4912191;29;20282;-53
2022/03/21 05:52:48;;;;;;;32.22;19.75;;;1.30;99.90;;;;;;4920663;29;20534;-54
2022/03/21 05:55:14;;;;;;;37.83;20.83;;;1.60;99.90;;;;;;4923267;29;20043;-53
2022/03/21 05:57:39;;;;;;;39.53;20.73;;;1.60;99.90;;;;;;4930463;29;20392;-55
2022/03/21 06:00:21;;;;;;;29.48;20.63;;;1.60;96.80;;;;;;4926356;29;20075;-53
2022/03/21 06:02:47;;;;;;;34.75;22.17;;;1.50;97.20;;;;;;4926818;29;20044;-49
2022/03/21 06:05:13;;;;;;;29.63;18.23;;;1.80;97.50;;;;;;4924994;29;20094;-49
2022/03/21 06:07:38;;;;;;;31.45;21.48;;;1.80;96.80;;;;;;4933460;28;20507;-49
2022/03/21 06:10:05;;;;;;;32.03;21.08;;;1.90;97.20;;;;;;4929597;29;20076;-49
2022/03/21 06:12:31;;;;;;;64.93;32.70;;;2.40;97.20;;;;;;4931009;29;20420;-53
2022/03/21 06:14:57;;;;;;;117.15;51.08;;;2.70;95.70;;;;;;4961215;28;20042;-53
2022/03/21 06:17:22;;;;;;;138.88;60.65;;;3.20;94.30;;;;;;4978723;28;20487;-53
2022/03/21 06:19:48;;;;;;;34.90;22.17;;;3.60;93.20;;;;;;4979897;28;20027;-49
2022/03/21 06:22:14;;;;;;;26.75;18.98;;;4.20;92.10;;;;;;4942851;29;20054;-49
2022/03/21 06:24:40;;;;;;;28.98;18.65;;;;;;;;;;4925456;29;20125;-51
2022/03/21 06:27:06;;;;;;;33.55;22.70;;;;;;;;;;4941651;29;20051;-50
2022/03/21 06:29:32;;;;;;;125.10;79.63;;;;;;;;;;4946896;29;20047;-50
2022/03/21 06:31:59;;;;;;;43.33;30.08;;;;;;;;;;4929607;29;20107;-51
2022/03/21 06:34:25;;;;;;;27.60;20.80;;;;;;;;;;4948279;29;20113;-50
2022/03/21 06:36:52;;;;;;;32.65;21.00;;;;;;;;;;4914998;29;20047;-56
2022/03/21 06:39:19;;;;;;;30.08;20.23;;;;;;;;;;4946623;29;20031;-51
2022/03/21 06:41:46;;;;;;;29.60;19.52;;;5.20;99.90;;;;;;4944964;28;20039;-50
2022/03/21 06:44:14;;;;;;;28.40;17.80;;;;;;;;;;4938115;29;20039;-50
2022/03/21 06:46:40;;;;;;;28.83;18.67;;;;;;;;;;4940993;28;20055;-52
2022/03/21 06:49:06;;;;;;;28.33;18.05;;;;;;;;;;4924415;29;20102;-50
2022/03/21 06:51:32;;;;;;;31.75;18.55;;;6.00;99.90;;;;;;4951592;29;20046;-50
2022/03/21 06:53:58;;;;;;;28.00;19.38;;;6.00;87.70;;;;;;4981465;28;20479;-52
2022/03/21 06:56:23;;;;;;;27.75;19.35;;;6.10;86.90;;;;;;4966510;28;20046;-51
2022/03/21 06:58:49;;;;;;;25.83;15.48;;;6.20;86.70;;;;;;4984990;28;20034;-49
2022/03/21 07:01:15;;;;;;;25.20;16.85;;;6.30;85.80;;;;;;4992084;28;20038;-51
2022/03/21 07:03:40;;;;;;;29.00;19.00;;;6.50;85.70;;;;;;4988802;28;20367;-51
2022/03/21 07:06:07;;;;;;;38.50;20.08;;;;;;;;;;4986801;28;20031;-50
2022/03/21 07:08:33;;;;;;;26.65;17.85;;;;;;;;;;4987858;28;20057;-51
2022/03/21 07:10:59;;;;;;;27.25;18.85;;;7.30;93.50;;;;;;4991078;28;20109;-51
2022/03/21 07:13:27;;;;;;;27.27;16.98;;;;;;;;;;4988181;28;20110;-51
2022/03/21 07:15:53;;;;;;;28.85;18.73;;;;;;;;;;4986925;28;20058;-51
2022/03/21 07:18:19;;;;;;;22.73;17.08;;;8.00;99.90;;;;;;4986842;28;20479;-51
2022/03/21 07:20:45;;;;;;;26.13;18.45;;;8.30;96.40;;;;;;4991605;28;20033;-51
2022/03/21 07:23:11;;;;;;;23.90;16.30;;;8.40;93.80;;;;;;4987877;28;20031;-51
2022/03/21 07:25:36;;;;;;;32.88;21.83;;;8.50;94.30;;;;;;4985486;28;20129;-51
2022/03/21 07:28:02;;;;;;;28.10;17.98;;;8.10;84.50;;;;;;4982424;28;20031;-51
2022/03/21 07:30:28;;;;;;;32.30;23.17;;;8.40;87.60;;;;;;4937193;28;20375;-51
2022/03/21 07:32:54;;;;;;;23.40;16.13;;;8.80;88.60;;;;;;4953546;28;20043;-51
2022/03/21 07:35:20;;;;;;;24.85;17.75;;;8.90;83.20;;;;;;4959750;28;20046;-51
2022/03/21 07:37:53;;;;;;;21.65;15.50;;;9.20;80.50;;;;;;4984353;28;20027;-50
2022/03/21 07:40:19;;;;;;;24.42;16.38;;;9.50;80.10;;;;;;4985290;28;20042;-51
2022/03/21 07:42:46;;;;;;;26.73;15.85;;;;;;;;;;4985091;28;20030;-51
2022/03/21 07:47:59;;;;;;;23.52;14.35;;;10.60;78.50;;;;;;4985430;28;20126;-52
2022/03/21 07:50:26;;;;;;;20.00;13.80;;;11.10;94.00;;;;;;4989143;28;20038;-51
2022/03/21 07:52:52;;;;;;;21.65;14.27;;;;;;;;;;4955132;28;20134;-52
2022/03/21 07:55:19;;;;;;;21.90;14.77;;;;;;;;;;4987124;28;20031;-52
2022/03/21 07:57:45;;;;;;;18.55;13.30;;;;;;;;;;4979213;28;20043;-51
2022/03/21 08:00:12;;;;;;;18.17;12.63;;;;;;;;;;4958880;28;20165;-52
2022/03/21 08:02:39;;;;;;;20.98;14.90;;;;;;;;;;4937949;28;20442;-51
2022/03/21 08:05:06;;;;;;;20.60;13.25;;;12.40;71.00;;;;;;4981315;28;20031;-51
2022/03/21 08:07:32;;;;;;;17.65;13.02;;;;;;;;;;4984952;28;20049;-51
2022/03/21 08:09:59;;;;;;;18.20;13.70;;;;;;;;;;4984606;28;20023;-52
2022/03/21 08:12:25;;;;;;;21.02;13.77;;;;;;;;;;4979072;28;20516;-51
2022/03/21 08:14:56;;;;;;;18.52;13.75;;;;;;;;;;4965422;28;20054;-51
2022/03/21 08:17:22;;;;;;;18.95;13.55;;;;;;;;;;4986184;28;20076;-52
2022/03/21 08:19:48;;;;;;;18.88;13.30;;;;;;;;;;4987710;28;20045;-49
2022/03/21 08:22:15;;;;;;;21.05;13.88;;;14.70;92.20;;;;;;4972983;28;20100;-52
2022/03/21 08:24:41;;;;;;;19.80;12.95;;;15.00;84.40;;;;;;4981448;28;20086;-51
2022/03/21 08:27:07;;;;;;;18.50;13.02;;;15.20;68.90;;;;;;4981818;28;20479;-52
2022/03/21 08:29:33;;;;;;;18.10;13.05;;;15.40;67.10;;;;;;4960268;28;20052;-54
2022/03/21 08:32:00;;;;;;;22.35;12.55;;;14.90;67.30;;;;;;4928755;28;20438;-57
2022/03/21 08:34:25;;;;;;;18.70;12.30;;;15.20;67.40;;;;;;4983103;28;20085;-54
2022/03/21 08:36:51;;;;;;;17.00;12.40;;;15.50;65.20;;;;;;4983515;28;20027;-56
2022/03/21 08:39:17;;;;;;;15.98;12.40;;;;;;;;;;4955101;28;21110;-57
2022/03/21 08:41:43;;;;;;;13.60;10.77;;;;;;;;;;4985183;28;20038;-53
2022/03/21 08:44:10;;;;;;;12.80;9.43;;;;;;;;;;4985117;28;20117;-54
2022/03/21 08:46:35;;;;;;;19.13;12.02;;;16.90;95.40;;;;;;4966105;28;20050;-56
2022/03/21 08:51:46;;;;;;;14.20;11.20;;;17.50;62.80;;;;;;4983256;28;20434;-55
2022/03/21 08:54:13;;;;;;;15.55;10.93;;;18.00;63.70;;;;;;4982689;28;20042;-57
2022/03/21 08:56:39;;;;;;;13.27;10.00;;;18.50;62.30;;;;;;4983900;28;20109;-56
2022/03/21 08:59:06;;;;;;;20.85;11.18;;;18.30;61.60;;;;;;4978010;28;20030;-55
2022/03/21 09:01:32;;;;;;;17.17;11.80;;;;;;;;;;4989838;28;20538;-55
2022/03/21 09:04:01;;;;;;;14.23;10.90;;;18.70;62.50;;;;;;4983451;28;20055;-54
2022/03/21 09:06:28;;;;;;;14.30;10.63;;;18.60;60.60;;;;;;4991080;28;20502;-52
2022/03/21 09:08:55;;;;;;;14.02;10.32;;;18.40;61.40;;;;;;4945546;28;20121;-54
2022/03/21 09:11:21;;;;;;;14.35;10.55;;;18.10;60.60;;;;;;4986327;28;20490;-57
2022/03/21 09:13:48;;;;;;;24.70;11.48;;;18.00;60.90;;;;;;4953218;28;20039;-55
2022/03/21 09:16:15;;;;;;;13.63;11.13;;;18.20;60.60;;;;;;4981204;28;20061;-53
2022/03/21 09:18:42;;;;;;;29.20;11.98;;;18.60;62.30;;;;;;4952414;28;20047;-58
2022/03/21 09:21:08;;;;;;;23.48;11.30;;;19.30;61.00;;;;;;4991896;28;20482;-54
2022/03/21 09:23:35;;;;;;;12.13;8.93;;;19.40;60.80;;;;;;4961344;28;20061;-52
2022/03/21 09:26:03;;;;;;;15.05;9.70;;;18.60;58.50;;;;;;4934031;28;20050;-57
2022/03/21 09:28:30;;;;;;;13.23;10.40;;;18.00;59.30;;;;;;4984366;28;20064;-55
2022/03/21 09:30:56;;;;;;;19.10;11.73;;;18.40;60.30;;;;;;4986491;28;20478;-53
2022/03/21 09:33:21;;;;;;;16.67;12.70;;;18.10;61.20;;;;;;4984818;28;20034;-55
2022/03/21 09:35:48;;;;;;;29.63;17.65;;;18.90;60.60;;;;;;4985417;28;20031;-55
2022/03/21 09:38:14;;;;;;;35.55;11.23;;;19.30;58.60;;;;;;4987029;28;20536;-57
2022/03/21 09:40:44;;;;;;;14.77;9.25;;;20.40;59.30;;;;;;4981568;28;20035;-54
2022/03/21 09:43:11;;;;;;;16.85;8.93;;;20.30;57.60;;;;;;4953923;28;20049;-54
2022/03/21 09:45:38;;;;;;;12.23;9.73;;;20.20;57.00;;;;;;4970322;28;20154;-54
2022/03/21 09:48:16;;;;;;;15.13;11.02;;;20.50;57.30;;;;;;4965976;28;20039;-52
2022/03/21 09:50:45;;;;;;;15.73;10.18;;;20.00;57.80;;;;;;4964214;28;20055;-54
2022/03/21 09:53:13;;;;;;;13.52;9.30;;;19.30;57.20;;;;;;4962903;28;20118;-56
2022/03/21 09:55:39;;;;;;;40.75;29.02;;;20.20;56.60;;;;;;4970462;28;20043;-52
2022/03/21 09:58:05;;;;;;;20.50;12.30;;;21.20;56.20;;;;;;4970775;28;20027;-54
2022/03/21 10:00:32;;;;;;;21.08;12.48;;;21.10;57.20;;;;;;4972762;28;20138;-54
2022/03/21 10:02:58;;;;;;;16.90;12.82;;;20.10;56.90;;;;;;4971873;28;20031;-54
2022/03/21 10:05:52;;;;;;;14.95;11.40;;;21.00;58.40;;;;;;4964265;28;20523;-56
2022/03/21 10:08:27;;;;;;;15.18;11.52;;;;;;;;;;4968390;28;20397;-56
2022/03/21 10:10:59;;;;;;;16.58;11.88;;;;;;;;;;4971337;28;20424;-56
2022/03/21 10:13:39;;;;;;;19.10;13.18;;;21.40;61.80;;;;;;4966809;28;20057;-53
2022/03/21 10:16:13;;;;;;;16.10;12.65;;;19.40;56.90;;;;;;4958245;28;20065;-55
2022/03/21 10:18:57;;;;;;;18.52;13.55;;;19.60;56.30;;;;;;4988076;28;20101;-53
2022/03/21 10:21:25;;;;;;;21.02;13.10;;;;;;;;;;4987659;28;20038;-56
2022/03/21 10:24:07;;;;;;;18.42;12.88;;;;;;;;;;4988754;28;20061;-56
2022/03/21 10:26:45;;;;;;;18.38;13.15;;;21.80;67.60;;;;;;4986743;28;20042;-57
2022/03/21 10:29:12;;;;;;;20.52;14.60;;;21.80;69.20;;;;;;4969768;28;20678;-54
2022/03/21 10:31:43;;;;;;;17.98;13.68;;;21.00;55.70;;;;;;4987592;28;20077;-53
2022/03/21 10:34:15;;;;;;;23.10;17.20;;;;;;;;;;4945981;28;20051;-57
2022/03/21 10:37:00;;;;;;;19.70;13.43;;;22.00;55.90;;;;;;4980889;28;20533;-53
2022/03/21 10:39:26;;;;;;;21.48;13.07;;;20.30;55.10;;;;;;4958131;28;20125;-53
2022/03/21 10:41:58;;;;;;;17.60;11.55;;;19.90;55.80;;;;;;4946506;28;20497;-58
2022/03/21 10:44:24;;;;;;;;;;;20.20;56.00;;;;;;4993003;28;20037;-58
2022/03/21 10:46:54;;;;;;;17.30;12.13;;;21.00;54.80;;;;;;4989414;28;20012;-58
2022/03/21 10:49:34;;;;;;;14.65;11.20;;;20.30;55.20;;;;;;4987685;28;20106;-53
2022/03/21 10:52:00;;;;;;;19.25;13.25;;;21.40;53.80;;;;;;4989668;28;20125;-57
2022/03/21 10:54:50;;;;;;;24.50;14.48;;;20.80;54.20;;;;;;4969449;28;20121;-52
2022/03/21 10:57:31;;;;;;;19.33;14.77;;;20.40;55.80;;;;;;4988627;28;20121;-56
2022/03/21 11:00:12;;;;;;;19.30;13.68;;;20.70;54.70;;;;;;4985230;28;20041;-57
2022/03/21 11:02:53;;;;;;;27.40;22.67;;;21.20;54.40;;;;;;4982753;28;20026;-57
2022/03/21 11:05:21;;;;;;;31.95;28.50;;;21.40;56.70;;;;;;4988690;28;20042;-54
2022/03/21 11:07:48;;;;;;;14.00;9.73;;;21.10;53.90;;;;;;4982299;28;20477;-52
2022/03/21 11:10:14;;;;;;;14.57;10.95;;;20.50;53.30;;;;;;4952231;28;20039;-57
2022/03/21 11:12:45;;;;;;;12.43;8.90;;;19.80;51.90;;;;;;4958474;28;20042;-53
2022/03/21 11:15:11;;;;;;;10.85;9.13;;;18.70;52.10;;;;;;4985101;28;20039;-53
2022/03/21 11:17:38;;;;;;;11.52;8.52;;;17.00;53.30;;;;;;4984423;28;20117;-52
2022/03/21 11:20:05;;;;;;;11.52;8.50;;;17.20;53.20;;;;;;4978937;28;20038;-54
2022/03/21 11:22:34;;;;;;;14.38;10.30;;;18.10;53.20;;;;;;4925243;28;20071;-54
2022/03/21 11:25:08;;;;;;;14.32;10.90;;;19.10;53.10;;;;;;4980636;28;20045;-51
2022/03/21 11:27:56;;;;;;;18.90;11.65;;;20.00;54.60;;;;;;4988381;28;20609;-53
2022/03/21 11:31:00;;;;;;;18.38;13.48;;;20.20;53.60;;;;;;4979682;28;20034;-51
2022/03/21 11:34:03;;;;;;;15.05;12.02;;;20.80;53.60;;;;;;4991775;28;20030;-53
2022/03/21 11:36:31;;;;;;;18.23;13.68;;;20.40;53.40;;;;;;4993030;28;20114;-52
2022/03/21 11:39:00;;;;;;;20.95;14.77;;;20.70;52.40;;;;;;4988674;28;20070;-52
2022/03/21 11:41:28;;;;;;;81.63;38.20;;;20.20;53.20;;;;;;4986491;28;20117;-52
2022/03/21 11:44:14;;;;;;;21.52;16.73;;;20.60;53.80;;;;;;4983402;28;20113;-51
2022/03/21 11:46:47;;;;;;;18.77;15.55;;;19.20;54.70;;;;;;4981778;28;20050;-51
2022/03/21 11:49:22;;;;;;;52.13;27.88;;;19.40;54.90;;;;;;4992735;28;20066;-51
2022/03/21 11:52:08;;;;;;;18.98;15.82;;;19.70;55.50;;;;;;4969940;28;20046;-53
2022/03/21 11:54:39;;;;;;;29.95;20.25;;;19.60;53.60;;;;;;4950654;28;20046;-53
2022/03/21 11:57:07;;;;;;;24.60;15.63;;;20.40;54.20;;;;;;4942279;28;20096;-53
2022/03/21 11:59:33;;;;;;;20.02;13.38;;;19.90;55.60;;;;;;4955740;28;20046;-54
2022/03/21 12:02:22;;;;;;;19.95;12.75;;;19.80;55.50;;;;;;4987474;28;20031;-53
2022/03/21 12:05:05;;;;;;;23.48;15.85;;;19.40;55.40;;;;;;4944224;29;20591;-53
2022/03/21 12:07:32;;;;;;;20.15;11.98;;;19.80;54.40;;;;;;4939031;29;20052;-52
2022/03/21 12:09:58;;;;;;;14.88;11.10;;;20.10;54.80;;;;;;4925267;29;20134;-52
2022/03/21 12:12:44;;;;;;;13.90;10.30;;;20.60;54.90;;;;;;4941046;29;20066;-51
2022/03/21 12:15:29;;;;;;;12.75;10.15;;;19.30;52.30;;;;;;4888594;29;20041;-52
2022/03/21 12:17:56;;;;;;;10.27;6.97;;;18.40;53.20;;;;;;4871184;29;20053;-52
2022/03/21 12:20:23;;;;;;;14.18;10.25;;;17.90;54.10;;;;;;4888657;29;20126;-53
2022/03/21 12:22:49;;;;;;;14.38;9.57;;;17.40;54.50;;;;;;4885796;29;20456;-53
2022/03/21 12:25:18;;;;;;;13.95;10.30;;;17.30;54.50;;;;;;4880869;29;20060;-53
2022/03/21 12:27:44;;;;;;;15.40;10.10;;;18.00;54.90;;;;;;4889476;29;20073;-52
2022/03/21 12:30:27;;;;;;;16.83;13.60;;;19.00;54.70;;;;;;4884306;29;20124;-52
2022/03/21 12:32:52;;;;;;;14.57;11.35;;;19.50;54.70;;;;;;4879367;29;20169;-55
2022/03/21 12:35:56;;;;;;;12.90;10.10;;;19.20;54.40;;;;;;4881723;29;20123;-55
2022/03/21 12:38:22;;;;;;;16.17;10.60;;;19.00;54.00;;;;;;4890521;29;20036;-55
2022/03/21 12:40:51;;;;;;;17.50;11.10;;;19.00;53.40;;;;;;4855567;29;20049;-52
2022/03/21 12:43:23;;;;;;;37.35;26.65;;;18.70;53.80;;;;;;4923327;29;20040;-54
2022/03/21 12:46:04;;;;;;;14.85;11.70;;;19.40;53.70;;;;;;4895762;28;20356;-52
2022/03/21 12:48:30;;;;;;;18.17;12.90;;;19.20;54.90;;;;;;4963215;28;20378;-54
2022/03/21 12:50:57;;;;;;;16.38;12.07;;;18.90;55.70;;;;;;4944250;28;20134;-54
2022/03/21 12:53:23;;;;;;;16.90;12.38;;;19.10;55.20;;;;;;4963669;28;20042;-52
2022/03/21 12:56:08;;;;;;;21.88;13.32;;;19.20;55.10;;;;;;4966570;28;20030;-51
2022/03/21 12:58:34;;;;;;;18.65;13.18;;;18.70;54.60;;;;;;4959844;28;20077;-53
2022/03/21 13:01:03;;;;;;;14.88;11.98;;;18.70;55.10;;;;;;4964858;28;20054;-52
2022/03/21 13:03:29;;;;;;;28.42;17.55;;;19.10;54.90;;;;;;4964047;28;20039;-54
2022/03/21 13:11:37;;;;;;;13.20;10.35;;;19.20;55.40;;;;;;4941649;29;20427;-53
2022/03/21 13:14:13;;;;;;;12.02;9.27;;;19.00;55.10;;;;;;4942979;29;20130;-52
2022/03/21 13:16:48;;;;;;;15.35;11.05;;;18.60;54.40;;;;;;4956033;28;20047;-52
2022/03/21 13:19:17;;;;;;;14.35;10.65;;;18.10;55.50;;;;;;4972694;28;20061;-51
2022/03/21 13:21:43;;;;;;;21.17;12.38;;;17.80;54.40;;;;;;4964986;28;20039;-51
2022/03/21 13:24:08;;;;;;;12.07;10.27;;;18.10;55.90;;;;;;4966794;28;20675;-47